Time;durP1;ratioP1;P1;durP2;ratioP2;P2;SDS_P1;SDS_P2;PMS_P1;PMS_P2;Temp;Humidity;BMP_temperature;BMP_pressure;BME280_temperature;BME280_humidity;BME280_pressure;Samples;Min_cycle;Max_cycle;Signal;HPM_P1;HPM_P2
2022/02/05 00:01:51;;;;;;;8.68;5.28;;;1.10;82.60;;;;;;1921589;74;21050;-51
2022/02/05 00:04:18;;;;;;;6.97;5.33;;;1.10;82.90;;;;;;1924530;74;21051;-53
2022/02/05 00:06:52;;;;;;;8.78;6.87;;;1.10;83.20;;;;;;1924830;74;21078;-52
2022/02/05 00:09:40;;;;;;;8.70;5.22;;;1.10;83.00;;;;;;1924331;74;21546;-50
2022/02/05 00:44:18;;;;;;;12.40;7.70;;;1.10;83.60;;;;;;1924693;74;21047;-51
2022/02/05 00:46:49;;;;;;;18.92;10.13;;;1.10;83.30;;;;;;1924782;74;21073;-51
2022/02/05 00:49:18;;;;;;;16.23;8.40;;;1.10;83.40;;;;;;1924669;74;21520;-52
2022/02/05 00:51:53;;;;;;;7.90;5.17;;;1.10;83.50;;;;;;1924793;74;21058;-50
2022/02/05 00:54:21;;;;;;;20.20;8.68;;;1.10;83.40;;;;;;1911251;74;21595;-49
2022/02/05 00:57:06;;;;;;;9.60;5.60;;;1.10;83.60;;;;;;1905358;74;21093;-52
2022/02/05 00:59:21;;;;;;;12.10;7.83;;;1.20;83.60;;;;;;1903658;74;21093;-51
2022/02/05 01:01:50;;;;;;;17.82;10.38;;;1.10;83.40;;;;;;1905251;75;21047;-49
2022/02/05 01:04:20;;;;;;;15.60;8.70;;;1.20;83.60;;;;;;1905268;74;21092;-51
2022/02/05 01:06:50;;;;;;;10.43;7.10;;;1.10;83.40;;;;;;1905263;75;21020;-52
2022/02/05 01:09:25;;;;;;;10.30;5.95;;;1.10;83.50;;;;;;1905428;75;21089;-52
2022/02/05 01:11:55;;;;;;;17.12;9.78;;;1.20;83.60;;;;;;1905516;75;21101;-51
2022/02/05 01:14:29;;;;;;;21.10;9.83;;;1.20;83.40;;;;;;1905253;74;21043;-53
2022/02/05 01:17:08;;;;;;;10.63;7.00;;;1.20;83.50;;;;;;1904931;74;21047;-52
2022/02/05 01:21:58;;;;;;;19.60;8.23;;;1.20;83.30;;;;;;1905222;75;21031;-52
2022/02/05 01:24:28;;;;;;;12.10;8.00;;;1.20;84.00;;;;;;1905371;74;21031;-52
2022/02/05 01:27:04;;;;;;;10.63;6.33;;;1.20;83.30;;;;;;1905354;74;21071;-51
2022/02/05 01:32:17;;;;;;;12.75;7.70;;;1.20;83.40;;;;;;1905242;74;21052;-52
2022/02/05 01:35:09;;;;;;;10.95;6.25;;;1.20;83.30;;;;;;1904911;74;21474;-51
2022/02/05 01:51:39;;;;;;;10.15;6.53;;;1.20;83.40;;;;;;1905317;75;21105;-50
2022/02/05 01:56:38;;;;;;;14.28;8.85;;;1.20;83.10;;;;;;1905267;74;21097;-49
2022/02/05 02:09:38;;;;;;;10.98;8.03;;;1.20;83.10;;;;;;1905187;75;21043;-51
2022/02/05 02:12:38;;;;;;;17.35;9.38;;;1.20;82.90;;;;;;1905358;75;21031;-52
2022/02/05 02:15:04;;;;;;;19.98;11.10;;;1.20;83.20;;;;;;1904509;74;21066;-52
2022/02/05 02:20:29;;;;;;;11.22;6.83;;;1.20;82.60;;;;;;1905391;75;21079;-52
2022/02/05 02:25:50;;;;;;;13.83;9.78;;;1.20;82.80;;;;;;1905451;75;21007;-51
2022/02/05 02:28:16;;;;;;;18.27;10.20;;;1.20;82.60;;;;;;1903928;74;21101;-50
2022/02/05 02:30:51;;;;;;;16.20;9.90;;;1.20;82.80;;;;;;1905100;74;21542;-50
2022/02/05 02:33:22;;;;;;;13.05;8.73;;;1.20;82.70;;;;;;1904346;74;22250;-51
2022/02/05 02:35:47;;;;;;;13.83;8.40;;;1.20;82.60;;;;;;1904925;74;21047;-49
2022/02/05 02:38:18;;;;;;;19.30;11.43;;;1.20;82.40;;;;;;1905221;74;21108;-51
2022/02/05 02:40:57;;;;;;;13.38;7.35;;;1.20;82.20;;;;;;1905305;74;21044;-50
2022/02/05 02:43:24;;;;;;;15.00;8.35;;;1.20;82.30;;;;;;1904312;74;21023;-50
2022/02/05 02:45:50;;;;;;;9.83;6.37;;;1.20;82.30;;;;;;1905354;74;21544;-49
2022/02/05 02:48:19;;;;;;;12.40;9.68;;;1.20;82.30;;;;;;1905522;75;21076;-51
2022/02/05 02:56:31;;;;;;;14.20;9.23;;;1.20;82.40;;;;;;1905353;75;21093;-52
2022/02/05 02:59:01;;;;;;;10.95;7.10;;;1.20;82.60;;;;;;1904829;74;21093;-51
2022/02/05 03:01:29;;;;;;;11.95;7.65;;;1.20;82.40;;;;;;1904933;74;21435;-50
2022/02/05 03:03:57;;;;;;;13.70;6.50;;;1.20;82.50;;;;;;1905377;75;21043;-50
2022/02/05 03:06:27;;;;;;;14.45;8.93;;;1.20;82.10;;;;;;1905408;75;21027;-52
2022/02/05 03:08:56;;;;;;;8.63;6.08;;;1.30;82.60;;;;;;1905419;75;21047;-50
2022/02/05 03:11:26;;;;;;;14.63;8.98;;;1.20;82.00;;;;;;1905238;75;21078;-49
2022/02/05 03:13:55;;;;;;;6.70;5.78;;;1.20;82.10;;;;;;1905296;75;21020;-51
2022/02/05 03:16:28;;;;;;;9.85;7.25;;;1.20;82.20;;;;;;1905357;75;21015;-50
2022/02/05 03:21:29;;;;;;;16.65;9.20;;;1.20;82.10;;;;;;1905478;75;21032;-49
2022/02/05 03:23:59;;;;;;;18.25;9.70;;;1.20;82.20;;;;;;1905449;75;21063;-50
2022/02/05 03:26:28;;;;;;;10.05;6.78;;;1.20;82.20;;;;;;1905376;75;21081;-50
2022/02/05 03:28:57;;;;;;;18.62;9.88;;;1.10;81.70;;;;;;1905410;75;20999;-51
2022/02/05 03:31:27;;;;;;;11.97;6.90;;;1.10;82.40;;;;;;1905352;75;21101;-51
2022/02/05 03:33:56;;;;;;;12.20;6.92;;;1.20;82.50;;;;;;1905274;75;21085;-49
2022/02/05 03:36:25;;;;;;;11.43;8.55;;;1.20;82.20;;;;;;1905511;75;21085;-49
2022/02/05 03:38:55;;;;;;;11.18;6.72;;;1.20;82.50;;;;;;1905359;75;21474;-50
2022/02/05 03:41:24;;;;;;;11.28;5.47;;;1.10;82.20;;;;;;1905345;75;20999;-52
2022/02/05 03:43:53;;;;;;;11.38;7.92;;;1.10;82.10;;;;;;1905390;75;21008;-52
2022/02/05 03:46:23;;;;;;;10.00;7.15;;;1.10;81.80;;;;;;1905388;75;21019;-51
2022/02/05 03:48:52;;;;;;;10.30;6.25;;;1.10;81.10;;;;;;1905386;75;21081;-52
2022/02/05 03:51:21;;;;;;;11.78;6.80;;;1.00;80.70;;;;;;1905331;75;21020;-50
2022/02/05 03:53:50;;;;;;;11.40;6.37;;;1.00;80.60;;;;;;1905395;75;21027;-49
2022/02/05 03:56:20;;;;;;;8.98;5.97;;;1.00;80.80;;;;;;1905258;75;21052;-52
2022/02/05 03:58:49;;;;;;;12.90;7.55;;;1.00;80.30;;;;;;1905309;74;21137;-49
2022/02/05 04:01:19;;;;;;;11.65;7.40;;;0.90;80.50;;;;;;1905196;74;21031;-50
2022/02/05 04:03:48;;;;;;;10.63;7.42;;;0.90;80.80;;;;;;1905258;74;21019;-50
2022/02/05 04:06:17;;;;;;;12.45;8.45;;;0.90;81.30;;;;;;1905251;75;21027;-50
2022/02/05 04:08:49;;;;;;;10.18;7.12;;;1.00;80.90;;;;;;1905350;75;20992;-49
2022/02/05 04:11:55;;;;;;;7.53;4.78;;;1.00;81.10;;;;;;1905344;74;21051;-51
2022/02/05 04:16:55;;;;;;;10.48;7.85;;;1.00;80.90;;;;;;1905491;75;21027;-49
2022/02/05 04:19:25;;;;;;;10.23;5.70;;;1.00;80.80;;;;;;1905388;75;21089;-51
2022/02/05 04:21:54;;;;;;;8.10;6.47;;;1.00;79.60;;;;;;1905339;75;21016;-52
2022/02/05 04:24:23;;;;;;;6.20;4.65;;;0.90;79.10;;;;;;1905413;75;21011;-49
2022/02/05 04:26:54;;;;;;;7.00;4.33;;;0.90;79.60;;;;;;1905414;74;21028;-51
2022/02/05 04:29:23;;;;;;;11.53;6.25;;;0.90;79.50;;;;;;1905288;75;21047;-48
2022/02/05 04:31:52;;;;;;;10.98;7.53;;;0.90;79.30;;;;;;1905265;74;21097;-52
2022/02/05 04:34:21;;;;;;;13.88;8.53;;;0.90;79.40;;;;;;1905252;74;20999;-49
2022/02/05 04:36:51;;;;;;;16.37;9.05;;;0.90;79.70;;;;;;1905296;75;21023;-50
2022/02/05 04:39:21;;;;;;;6.90;4.50;;;0.90;80.70;;;;;;1905329;75;21102;-52
2022/02/05 04:42:08;;;;;;;9.25;6.42;;;0.90;79.20;;;;;;1905327;75;21040;-49
2022/02/05 04:50:23;;;;;;;12.33;6.75;;;1.00;80.30;;;;;;1905299;75;21031;-49
2022/02/05 05:01:19;;;;;;;9.23;6.05;;;1.00;80.20;;;;;;1905289;75;21027;-52
2022/02/05 05:06:34;;;;;;;11.50;6.30;;;1.00;78.10;;;;;;1905477;74;21030;-53
2022/02/05 05:11:51;;;;;;;11.22;6.78;;;1.00;78.50;;;;;;1905306;75;21027;-52
2022/02/05 05:19:47;;;;;;;5.05;3.05;;;1.00;78.40;;;;;;1905386;74;21027;-51
2022/02/05 05:22:04;;;;;;;11.80;7.08;;;1.00;77.30;;;;;;1901912;74;21132;-51
2022/02/05 05:24:33;;;;;;;9.18;6.62;;;1.00;78.80;;;;;;1905328;75;21023;-52
2022/02/05 05:27:03;;;;;;;7.67;4.30;;;1.00;78.20;;;;;;1905162;75;21015;-52
2022/02/05 05:29:33;;;;;;;3.40;2.70;;;1.00;77.30;;;;;;1905194;75;21085;-51
2022/02/05 05:32:02;;;;;;;7.70;5.47;;;0.90;75.90;;;;;;1905325;74;21090;-52
2022/02/05 05:34:32;;;;;;;9.38;6.10;;;0.90;77.30;;;;;;1905352;75;21101;-50
2022/02/05 05:37:02;;;;;;;9.75;5.55;;;0.90;77.00;;;;;;1905184;75;21027;-49
2022/02/05 05:39:33;;;;;;;10.85;6.55;;;0.90;77.80;;;;;;1905216;75;21085;-51
2022/02/05 05:42:05;;;;;;;9.88;6.28;;;0.90;78.10;;;;;;1905221;75;21085;-51
2022/02/05 05:50:05;;;;;;;7.87;4.45;;;1.00;77.70;;;;;;1905114;74;21007;-51
2022/02/05 05:52:30;;;;;;;7.53;6.20;;;1.00;77.70;;;;;;1904781;74;21048;-51
2022/02/05 05:55:00;;;;;;;5.80;4.97;;;1.00;77.30;;;;;;1905254;75;21137;-49
2022/02/05 05:57:30;;;;;;;7.00;5.50;;;1.00;78.20;;;;;;1905260;74;21180;-50
2022/02/05 06:00:00;;;;;;;6.22;3.83;;;1.00;77.80;;;;;;1905192;75;21563;-52
2022/02/05 06:02:29;;;;;;;9.08;5.20;;;1.00;77.10;;;;;;1905299;74;21067;-49
2022/02/05 06:04:58;;;;;;;6.45;4.75;;;1.00;77.10;;;;;;1905505;75;21000;-49
2022/02/05 06:07:27;;;;;;;9.48;5.33;;;1.00;76.70;;;;;;1905362;75;21039;-51
2022/02/05 06:09:56;;;;;;;7.35;5.83;;;1.00;76.80;;;;;;1905520;75;21027;-51
2022/02/05 06:12:26;;;;;;;7.65;5.20;;;1.00;76.90;;;;;;1905259;74;21073;-51
2022/02/05 06:14:57;;;;;;;6.45;4.40;;;1.00;76.10;;;;;;1905288;75;21019;-51
2022/02/05 06:17:26;;;;;;;10.50;5.45;;;1.00;74.90;;;;;;1905301;75;21012;-50
2022/02/05 06:19:55;;;;;;;8.58;4.17;;;1.00;75.30;;;;;;1905383;75;21055;-50
2022/02/05 06:22:25;;;;;;;5.87;4.15;;;1.00;75.00;;;;;;1905266;74;21031;-50
2022/02/05 06:24:54;;;;;;;6.37;4.97;;;1.00;74.40;;;;;;1905307;75;21069;-49
2022/02/05 06:27:23;;;;;;;6.22;3.60;;;1.00;75.30;;;;;;1905393;75;21019;-51
2022/02/05 06:29:52;;;;;;;4.90;3.37;;;0.90;74.40;;;;;;1905395;75;21176;-51
2022/02/05 06:32:21;;;;;;;4.22;3.42;;;1.00;75.40;;;;;;1905281;75;21018;-51
2022/02/05 06:34:51;;;;;;;8.50;4.90;;;1.00;75.60;;;;;;1905243;75;21105;-49
2022/02/05 06:37:21;;;;;;;7.72;5.00;;;1.00;76.50;;;;;;1905334;75;21024;-50
2022/02/05 06:39:50;;;;;;;10.13;6.45;;;1.10;75.00;;;;;;1905262;74;21089;-50
2022/02/05 06:42:19;;;;;;;5.17;4.42;;;1.10;76.40;;;;;;1905276;75;21046;-49
2022/02/05 06:44:49;;;;;;;5.55;4.30;;;1.10;75.10;;;;;;1905244;75;21015;-51
2022/02/05 06:47:18;;;;;;;9.65;5.62;;;1.10;73.50;;;;;;1905267;74;20991;-52
2022/02/05 06:49:48;;;;;;;5.22;4.17;;;1.10;74.10;;;;;;1905364;75;21019;-52
2022/02/05 06:52:17;;;;;;;7.50;5.65;;;1.10;73.60;;;;;;1905231;74;21524;-49
2022/02/05 06:54:47;;;;;;;6.87;4.53;;;1.10;74.40;;;;;;1905263;74;21077;-51
2022/02/05 06:57:16;;;;;;;4.75;3.55;;;1.10;74.80;;;;;;1914845;74;21109;-50
2022/02/05 06:59:46;;;;;;;10.50;5.12;;;1.10;72.60;;;;;;1924820;74;21073;-49
2022/02/05 07:02:15;;;;;;;6.33;3.95;;;1.20;73.30;;;;;;1924649;74;20991;-51
2022/02/05 07:04:45;;;;;;;8.83;5.67;;;1.10;69.70;;;;;;1924650;74;21085;-51
2022/02/05 07:07:15;;;;;;;3.17;2.72;;;1.10;72.10;;;;;;1924713;74;21019;-49
2022/02/05 07:09:44;;;;;;;7.30;4.08;;;1.20;71.70;;;;;;1924751;74;21088;-51
2022/02/05 07:12:14;;;;;;;8.48;4.65;;;1.20;73.20;;;;;;1924724;74;21039;-51
2022/02/05 07:15:01;;;;;;;7.92;4.65;;;1.30;72.10;;;;;;1924593;74;21018;-51
2022/02/05 07:17:22;;;;;;;8.13;4.42;;;1.30;71.40;;;;;;1921806;74;21019;-51
2022/02/05 07:22:18;;;;;;;7.53;4.30;;;1.30;71.60;;;;;;1924647;74;21042;-50
2022/02/05 07:30:21;;;;;;;9.03;3.55;;;1.50;72.10;;;;;;1924724;74;21027;-52
2022/02/05 07:32:50;;;;;;;6.25;5.03;;;1.50;71.90;;;;;;1924624;74;21105;-49
2022/02/05 07:35:20;;;;;;;7.40;4.53;;;1.50;73.40;;;;;;1924750;74;21108;-52
2022/02/05 07:37:53;;;;;;;3.35;2.52;;;1.60;73.30;;;;;;1924614;74;21077;-49
2022/02/05 07:40:20;;;;;;;7.40;5.22;;;1.60;66.60;;;;;;1924586;74;21525;-49
2022/02/05 07:42:49;;;;;;;7.00;4.25;;;1.60;68.80;;;;;;1924649;74;21031;-50
2022/02/05 07:45:19;;;;;;;4.85;4.35;;;1.60;70.10;;;;;;1924728;74;21019;-52
2022/02/05 07:47:49;;;;;;;10.68;4.80;;;1.60;70.10;;;;;;1924580;74;21018;-50
2022/02/05 07:50:18;;;;;;;5.65;4.08;;;1.60;70.80;;;;;;1924662;74;21019;-51
2022/02/05 07:52:47;;;;;;;4.60;3.62;;;1.60;69.60;;;;;;1924618;74;21068;-52
2022/02/05 07:55:17;;;;;;;10.75;5.30;;;1.60;71.20;;;;;;1924804;74;21035;-52
2022/02/05 07:57:46;;;;;;;7.62;5.53;;;1.70;70.70;;;;;;1915701;74;21121;-51
2022/02/05 08:00:16;;;;;;;12.50;4.25;;;1.70;70.20;;;;;;1905343;75;21020;-50
2022/02/05 08:02:45;;;;;;;4.00;3.33;;;1.70;69.60;;;;;;1905267;75;21056;-51
2022/02/05 08:05:14;;;;;;;4.05;3.27;;;1.70;67.80;;;;;;1905243;75;21000;-51
2022/02/05 08:07:44;;;;;;;7.55;5.25;;;1.70;68.10;;;;;;1905260;75;21159;-50
2022/02/05 08:10:15;;;;;;;6.15;5.10;;;1.70;69.90;;;;;;1905300;75;21020;-52
2022/02/05 08:12:50;;;;;;;8.18;5.72;;;1.80;70.50;;;;;;1905318;74;21512;-51
2022/02/05 08:15:18;;;;;;;7.05;4.35;;;1.80;71.60;;;;;;1904994;74;20996;-51
2022/02/05 08:17:46;;;;;;;15.40;5.75;;;1.90;69.10;;;;;;1905165;74;21050;-51
2022/02/05 08:20:15;;;;;;;9.33;5.12;;;1.90;70.80;;;;;;1905189;74;21024;-51
2022/02/05 08:22:45;;;;;;;7.12;4.65;;;2.00;69.90;;;;;;1905300;75;21093;-51
2022/02/05 08:25:14;;;;;;;10.98;5.50;;;2.10;70.00;;;;;;1905211;74;21023;-50
2022/02/05 08:27:43;;;;;;;6.25;4.25;;;2.10;70.60;;;;;;1905235;75;21043;-50
2022/02/05 08:30:14;;;;;;;12.98;5.72;;;2.20;70.50;;;;;;1905285;75;21000;-52
2022/02/05 08:32:45;;;;;;;7.47;4.85;;;2.20;70.00;;;;;;1905232;75;21085;-52
2022/02/05 08:35:14;;;;;;;5.67;4.37;;;2.20;70.30;;;;;;1905349;74;21081;-50
2022/02/05 08:37:45;;;;;;;7.35;5.05;;;2.20;66.80;;;;;;1905425;75;21094;-53
2022/02/05 08:40:16;;;;;;;8.78;5.37;;;2.20;68.00;;;;;;1905363;75;21548;-51
2022/02/05 08:42:45;;;;;;;9.50;4.85;;;2.20;69.90;;;;;;1905362;75;21023;-52
2022/02/05 08:45:15;;;;;;;5.92;4.25;;;2.30;68.30;;;;;;1905143;75;21080;-53
2022/02/05 08:47:44;;;;;;;8.30;4.10;;;2.30;67.90;;;;;;1905358;75;21019;-52
2022/02/05 08:50:14;;;;;;;7.60;5.17;;;2.30;66.90;;;;;;1905150;74;21086;-51
2022/02/05 08:52:43;;;;;;;6.85;4.72;;;2.20;67.50;;;;;;1905342;74;21011;-52
2022/02/05 08:55:14;;;;;;;8.43;4.87;;;2.20;67.10;;;;;;1905303;74;21019;-51
2022/02/05 08:57:43;;;;;;;9.70;5.35;;;2.30;67.50;;;;;;1908068;74;21481;-50
2022/02/05 09:00:16;;;;;;;7.97;5.75;;;2.30;68.30;;;;;;1924684;74;21109;-52
2022/02/05 09:02:55;;;;;;;5.78;4.37;;;2.30;70.10;;;;;;1924726;74;21458;-48
2022/02/05 09:05:32;;;;;;;6.20;4.80;;;2.40;69.10;;;;;;1923735;74;21080;-53
2022/02/05 09:07:49;;;;;;;7.67;4.65;;;2.50;67.50;;;;;;1922782;74;21507;-52
2022/02/05 09:10:34;;;;;;;8.70;5.53;;;2.60;68.20;;;;;;1924515;74;21402;-52
2022/02/05 09:15:37;;;;;;;9.25;4.78;;;2.60;67.90;;;;;;1895605;74;21042;-52
2022/02/05 09:18:08;;;;;;;16.62;4.55;;;2.60;67.50;;;;;;1924570;74;20987;-53
2022/02/05 09:20:37;;;;;;;8.60;5.10;;;2.50;65.70;;;;;;1924503;74;21088;-53
2022/02/05 09:23:07;;;;;;;7.47;5.53;;;2.50;68.70;;;;;;1924634;74;21023;-51
2022/02/05 09:25:40;;;;;;;6.30;4.60;;;2.60;66.40;;;;;;1924458;74;21031;-52
2022/02/05 09:28:09;;;;;;;9.43;5.33;;;2.60;67.10;;;;;;1924555;74;21070;-51
2022/02/05 09:31:13;;;;;;;7.50;5.08;;;2.70;65.50;;;;;;1924714;74;21465;-52
2022/02/05 09:33:21;;;;;;;3.87;2.45;;;2.70;66.60;;;;;;1921496;74;21469;-49
2022/02/05 09:35:51;;;;;;;5.28;4.28;;;2.80;65.60;;;;;;1924554;74;21115;-49
2022/02/05 09:38:20;;;;;;;6.33;4.12;;;2.70;66.00;;;;;;1924813;74;21030;-50
2022/02/05 09:40:49;;;;;;;8.65;5.55;;;2.80;64.90;;;;;;1924578;74;21097;-51
2022/02/05 09:43:26;;;;;;;4.90;4.28;;;2.70;65.70;;;;;;1924674;74;21022;-52
2022/02/05 09:45:59;;;;;;;9.75;4.97;;;2.60;65.40;;;;;;1924621;74;21018;-51
2022/02/05 09:48:31;;;;;;;14.20;5.45;;;2.60;67.60;;;;;;1924575;74;21013;-53
2022/02/05 09:51:05;;;;;;;8.95;5.95;;;2.60;67.00;;;;;;1924664;74;21069;-52
2022/02/05 09:53:31;;;;;;;7.05;5.62;;;2.70;67.50;;;;;;1924171;74;21035;-48
2022/02/05 09:56:01;;;;;;;8.70;5.40;;;2.60;68.50;;;;;;1924532;74;21062;-51
2022/02/05 09:58:30;;;;;;;8.33;4.90;;;2.70;69.30;;;;;;1920202;74;21198;-51
2022/02/05 10:01:02;;;;;;;7.05;4.53;;;2.90;68.50;;;;;;1905234;75;21024;-51
2022/02/05 10:03:32;;;;;;;6.45;4.55;;;2.90;68.00;;;;;;1905291;75;21090;-52
2022/02/05 10:06:12;;;;;;;9.25;4.53;;;3.00;67.90;;;;;;1905179;75;21097;-50
2022/02/05 10:08:46;;;;;;;9.45;5.40;;;3.00;68.30;;;;;;1902881;74;21031;-50
2022/02/05 10:11:15;;;;;;;9.88;3.37;;;3.00;66.60;;;;;;1905396;75;21504;-52
2022/02/05 10:13:44;;;;;;;7.60;4.28;;;3.10;66.30;;;;;;1905222;74;21000;-51
2022/02/05 10:16:14;;;;;;;4.97;3.65;;;3.10;66.30;;;;;;1905236;75;21035;-51
2022/02/05 10:18:44;;;;;;;5.03;3.72;;;3.10;64.70;;;;;;1905203;75;21000;-53
2022/02/05 10:21:24;;;;;;;6.20;4.20;;;3.10;63.30;;;;;;1905127;75;21035;-51
2022/02/05 10:24:04;;;;;;;6.28;4.10;;;3.20;65.00;;;;;;1905249;75;20988;-51
2022/02/05 10:26:39;;;;;;;7.83;4.75;;;3.20;66.60;;;;;;1905124;75;20983;-53
2022/02/05 10:29:15;;;;;;;12.82;5.50;;;3.30;66.80;;;;;;1905410;75;20992;-53
2022/02/05 10:32:11;;;;;;;5.90;5.00;;;3.30;65.70;;;;;;1905117;75;21023;-50
2022/02/05 10:35:19;;;;;;;7.40;4.80;;;3.30;64.80;;;;;;1905186;74;21051;-52
2022/02/05 10:37:46;;;;;;;5.47;4.28;;;3.30;65.20;;;;;;1903896;74;21032;-52
2022/02/05 10:40:22;;;;;;;3.15;2.33;;;3.30;63.10;;;;;;1905043;74;21081;-51
2022/02/05 10:45:45;;;;;;;10.63;3.42;;;3.30;60.60;;;;;;1905118;74;21136;-51
2022/02/05 10:48:20;;;;;;;11.38;4.60;;;3.20;61.70;;;;;;1903516;74;21120;-50
2022/02/05 10:50:52;;;;;;;4.60;4.00;;;3.20;62.90;;;;;;1905374;74;21035;-51
2022/02/05 10:53:27;;;;;;;7.70;4.62;;;3.20;61.00;;;;;;1905388;75;21101;-52
2022/02/05 11:07:13;;;;;;;6.17;3.70;;;3.20;61.00;;;;;;1905289;74;21055;-51
2022/02/05 11:09:44;;;;;;;5.13;2.67;;;3.20;59.80;;;;;;1905499;75;21019;-49
2022/02/05 11:20:11;;;;;;;6.30;3.40;;;3.30;61.20;;;;;;1905382;75;21019;-51
2022/02/05 11:22:44;;;;;;;;;;;3.40;60.00;;;;;;1907808;74;21102;-51
2022/02/05 11:25:15;;;;;;;2.98;2.47;;;3.40;58.00;;;;;;1904887;74;20105;-52
2022/02/05 11:27:49;;;;;;;4.50;2.60;;;3.40;55.70;;;;;;1905361;75;21023;-52
2022/02/05 11:30:39;;;;;;;4.58;3.33;;;3.30;56.00;;;;;;1905435;75;21023;-53
2022/02/05 11:33:23;;;;;;;4.33;3.87;;;3.30;56.70;;;;;;1905296;75;21027;-52
2022/02/05 11:38:32;;;;;;;5.87;3.65;;;3.30;57.50;;;;;;1905335;74;21039;-50
2022/02/05 11:41:03;;;;;;;4.35;3.00;;;3.30;55.40;;;;;;1905272;75;21058;-53
2022/02/05 11:43:37;;;;;;;7.08;3.80;;;3.30;57.70;;;;;;1905159;75;21128;-50
2022/02/05 11:46:08;;;;;;;4.92;4.35;;;3.40;57.00;;;;;;1905393;75;21058;-49
2022/02/05 11:48:42;;;;;;;4.55;3.10;;;3.40;57.30;;;;;;1905312;75;21446;-49
2022/02/05 11:51:27;;;;;;;4.80;2.87;;;3.40;55.90;;;;;;1905554;75;21512;-49
2022/02/05 11:54:00;;;;;;;;;;;3.40;56.80;;;;;;1908002;75;21097;-52
2022/02/05 11:56:57;;;;;;;5.33;1.77;;;3.40;56.90;;;;;;1905301;75;20121;-53
2022/02/05 11:59:50;;;;;;;2.77;2.10;;;3.40;53.80;;;;;;1904898;74;21075;-52
2022/02/05 12:02:22;;;;;;;4.95;2.77;;;3.40;53.30;;;;;;1905225;75;21093;-53
2022/02/05 12:05:17;;;;;;;5.42;2.85;;;3.40;55.60;;;;;;1905185;74;21007;-53
2022/02/05 12:08:10;;;;;;;5.67;2.70;;;3.40;55.20;;;;;;1905407;75;21082;-52
2022/02/05 12:10:44;;;;;;;8.58;3.65;;;3.30;54.70;;;;;;1904567;74;21518;-50
2022/02/05 12:13:21;;;;;;;5.53;3.55;;;3.40;57.20;;;;;;1905411;75;21008;-51
2022/02/05 12:16:02;;;;;;;2.87;2.42;;;3.40;56.70;;;;;;1905345;75;21035;-50
2022/02/05 12:18:33;;;;;;;2.15;1.95;;;3.40;55.60;;;;;;1904629;75;21066;-51
2022/02/05 12:26:25;;;;;;;6.90;3.47;;;3.40;55.00;;;;;;1905195;75;21040;-52
2022/02/05 12:29:00;;;;;;;4.10;2.15;;;3.40;55.70;;;;;;1905257;74;21035;-52
2022/02/05 12:31:34;;;;;;;6.83;4.08;;;3.50;55.70;;;;;;1904297;74;21446;-53
2022/02/05 12:34:02;;;;;;;5.50;2.85;;;3.40;56.70;;;;;;1903865;74;21093;-49
2022/02/05 12:36:40;;;;;;;3.45;2.95;;;3.50;57.10;;;;;;1905326;75;21521;-51
2022/02/05 12:39:09;;;;;;;5.62;4.35;;;3.50;56.00;;;;;;1902205;74;21023;-51
2022/02/05 12:41:44;;;;;;;4.42;3.02;;;3.50;56.80;;;;;;1905395;75;21047;-52
2022/02/05 12:44:14;;;;;;;5.08;3.12;;;3.60;56.90;;;;;;1905148;74;21466;-52
2022/02/05 12:46:54;;;;;;;11.60;3.27;;;3.60;54.50;;;;;;1905185;74;21079;-52
2022/02/05 12:49:27;;;;;;;4.20;2.90;;;3.60;57.70;;;;;;1905310;75;21518;-52
2022/02/05 12:51:56;;;;;;;3.50;2.75;;;3.60;55.50;;;;;;1905071;74;21020;-52
2022/02/05 12:54:27;;;;;;;2.72;2.42;;;3.70;55.20;;;;;;1905196;75;21019;-52
2022/02/05 12:56:57;;;;;;;3.00;2.70;;;3.70;55.00;;;;;;1905321;75;20995;-53
2022/02/05 12:59:38;;;;;;;3.55;1.82;;;3.60;55.40;;;;;;1905113;75;21027;-53
2022/02/05 13:02:09;;;;;;;3.15;2.05;;;3.70;53.00;;;;;;1905246;74;21035;-50
2022/02/05 13:04:44;;;;;;;8.18;3.08;;;3.60;51.60;;;;;;1905128;75;21019;-52
2022/02/05 13:07:24;;;;;;;4.90;3.17;;;3.60;53.90;;;;;;1905469;75;21011;-52
2022/02/05 13:10:07;;;;;;;2.80;1.77;;;3.60;54.40;;;;;;1905179;74;21011;-52
2022/02/05 13:12:42;;;;;;;7.20;1.87;;;3.60;52.60;;;;;;1905266;75;21105;-52
2022/02/05 13:15:29;;;;;;;6.25;2.37;;;3.50;53.10;;;;;;1905208;74;21044;-53
2022/02/05 13:34:27;;;;;;;4.55;2.25;;;3.50;54.60;;;;;;1905173;75;21149;-53
2022/02/05 13:42:19;;;;;;;4.62;2.87;;;3.40;56.70;;;;;;1905230;74;21092;-55
2022/02/05 13:45:01;;;;;;;6.03;2.62;;;3.40;56.10;;;;;;1905226;75;21043;-53
2022/02/05 13:47:33;;;;;;;5.80;2.33;;;3.40;55.50;;;;;;1905285;74;21092;-54
2022/02/05 13:50:17;;;;;;;6.40;2.80;;;3.40;56.40;;;;;;1905321;74;21054;-53
2022/02/05 13:52:49;;;;;;;4.20;2.75;;;3.30;57.50;;;;;;1905383;74;21516;-53
2022/02/05 13:55:24;;;;;;;9.50;3.35;;;3.30;58.10;;;;;;1905435;75;21027;-54
2022/02/05 13:58:02;;;;;;;7.87;3.45;;;3.20;57.70;;;;;;1905306;75;21084;-53
2022/02/05 14:01:02;;;;;;;7.80;3.52;;;3.20;58.10;;;;;;1907960;74;21250;-51
2022/02/05 14:03:34;;;;;;;12.13;4.87;;;3.20;58.60;;;;;;1923622;74;21018;-53
2022/02/05 14:06:05;;;;;;;6.70;3.17;;;3.10;58.90;;;;;;1924656;74;21111;-52
2022/02/05 14:08:46;;;;;;;14.33;4.35;;;3.10;58.50;;;;;;1924716;74;21075;-52
2022/02/05 14:11:18;;;;;;;15.68;4.10;;;3.10;59.50;;;;;;1924871;74;21026;-49
2022/02/05 14:13:50;;;;;;;8.50;3.83;;;3.10;60.30;;;;;;1923860;74;21485;-51
2022/02/05 14:16:22;;;;;;;6.05;3.33;;;3.20;60.90;;;;;;1923443;74;21096;-52
2022/02/05 14:18:58;;;;;;;7.37;3.25;;;3.20;61.60;;;;;;1923004;74;21437;-54
2022/02/05 14:21:34;;;;;;;4.08;3.00;;;3.30;62.40;;;;;;1924551;74;21010;-54
2022/02/05 14:24:05;;;;;;;6.17;3.52;;;3.40;62.90;;;;;;1924758;74;21016;-53
2022/02/05 14:26:42;;;;;;;4.87;3.00;;;3.50;63.20;;;;;;1924782;74;21456;-54
2022/02/05 14:29:07;;;;;;;8.50;3.62;;;3.50;63.80;;;;;;1923964;74;20998;-53
2022/02/05 14:31:46;;;;;;;7.80;2.90;;;3.60;64.20;;;;;;1924695;74;21426;-53
2022/02/05 14:34:19;;;;;;;7.35;3.60;;;3.60;64.30;;;;;;1924417;74;21070;-54
2022/02/05 14:42:21;;;;;;;15.05;5.42;;;3.70;65.20;;;;;;1924757;74;21031;-53
2022/02/05 14:44:52;;;;;;;15.83;4.80;;;3.80;65.70;;;;;;1924674;74;21024;-52
2022/02/05 14:47:21;;;;;;;20.20;4.72;;;3.80;66.10;;;;;;1924738;74;21113;-53
2022/02/05 14:49:50;;;;;;;12.15;5.20;;;3.80;66.20;;;;;;1924560;74;21076;-54
2022/02/05 14:52:20;;;;;;;15.83;4.12;;;3.90;66.30;;;;;;1924784;74;21018;-53
2022/02/05 14:54:49;;;;;;;17.98;5.87;;;3.90;66.10;;;;;;1924686;74;21073;-54
2022/02/05 14:57:19;;;;;;;7.70;5.25;;;3.90;65.90;;;;;;1924748;74;21007;-53
2022/02/05 14:59:48;;;;;;;11.03;4.87;;;3.80;65.40;;;;;;1924641;74;21022;-54
2022/02/05 15:02:18;;;;;;;7.62;4.03;;;3.70;65.80;;;;;;1912409;74;21027;-51
2022/02/05 15:04:48;;;;;;;7.15;3.80;;;3.60;65.30;;;;;;1905247;75;21043;-51
2022/02/05 15:07:19;;;;;;;10.48;5.05;;;3.50;65.30;;;;;;1905353;75;21015;-53
2022/02/05 15:09:49;;;;;;;8.50;4.55;;;3.40;65.90;;;;;;1905211;75;21031;-54
2022/02/05 15:12:18;;;;;;;7.70;4.28;;;3.40;66.40;;;;;;1905273;75;21082;-54
2022/02/05 15:14:47;;;;;;;5.75;4.33;;;3.40;67.00;;;;;;1905238;75;21015;-53
2022/02/05 15:17:16;;;;;;;4.78;3.98;;;3.40;67.50;;;;;;1905394;74;21454;-52
2022/02/05 15:19:46;;;;;;;8.85;4.83;;;3.40;67.60;;;;;;1905370;75;21094;-52
2022/02/05 15:22:15;;;;;;;6.58;4.30;;;3.50;67.80;;;;;;1905422;75;21020;-52
2022/02/05 15:24:44;;;;;;;6.65;4.20;;;3.40;67.50;;;;;;1905233;75;21003;-52
2022/02/05 15:27:14;;;;;;;7.05;3.80;;;3.40;67.90;;;;;;1905289;75;21075;-53
2022/02/05 15:29:43;;;;;;;5.37;4.12;;;3.40;68.50;;;;;;1905200;75;20995;-53
2022/02/05 15:32:12;;;;;;;7.35;4.05;;;3.40;68.40;;;;;;1905242;75;21081;-52
2022/02/05 15:34:44;;;;;;;8.88;4.12;;;3.50;68.70;;;;;;1905272;75;21419;-51
2022/02/05 15:37:22;;;;;;;9.10;4.33;;;3.50;69.00;;;;;;1905396;75;21059;-54
2022/02/05 15:40:03;;;;;;;6.67;4.20;;;3.50;69.40;;;;;;1905115;74;21035;-53
2022/02/05 15:45:08;;;;;;;7.72;4.83;;;3.60;69.70;;;;;;1905349;75;21101;-52
2022/02/05 15:47:38;;;;;;;11.43;7.05;;;3.70;70.00;;;;;;1905179;75;20992;-53
2022/02/05 15:50:11;;;;;;;9.58;4.50;;;3.70;70.00;;;;;;1905123;74;21074;-53
2022/02/05 15:52:39;;;;;;;10.50;4.97;;;3.80;70.30;;;;;;1905259;75;21059;-52
2022/02/05 15:55:11;;;;;;;14.43;5.25;;;3.80;70.90;;;;;;1905362;74;21047;-52
2022/02/05 15:58:03;;;;;;;11.48;4.72;;;3.80;70.20;;;;;;1905366;75;21012;-52
2022/02/05 16:00:32;;;;;;;6.70;5.10;;;3.80;70.50;;;;;;1905042;74;21004;-50
2022/02/05 16:03:02;;;;;;;8.25;4.58;;;3.80;70.60;;;;;;1905083;74;21521;-53
2022/02/05 16:05:31;;;;;;;8.48;5.45;;;3.80;71.00;;;;;;1905330;75;21026;-52
2022/02/05 16:08:01;;;;;;;8.00;5.70;;;3.80;70.70;;;;;;1905234;75;21059;-54
2022/02/05 16:10:31;;;;;;;9.20;5.25;;;3.80;71.00;;;;;;1905200;75;21070;-51
2022/02/05 16:13:00;;;;;;;11.35;5.20;;;3.80;71.30;;;;;;1905208;75;21055;-50
2022/02/05 16:15:29;;;;;;;7.87;4.85;;;3.80;71.40;;;;;;1905323;74;21015;-52
2022/02/05 16:17:59;;;;;;;8.45;5.25;;;3.90;71.70;;;;;;1905282;75;21027;-52
2022/02/05 16:20:28;;;;;;;10.10;4.70;;;3.90;71.90;;;;;;1905262;74;21081;-53
2022/02/05 16:22:57;;;;;;;8.78;5.25;;;3.90;71.60;;;;;;1905232;75;21031;-52